createdAt,value
2018-07-12T00:01:59.627Z,13.20
2018-07-12T00:04:26.238Z,13.20
2018-07-12T00:06:52.797Z,13.20
2018-07-12T00:09:19.385Z,13.20
2018-07-12T00:11:45.974Z,13.20
2018-07-12T00:14:12.546Z,13.20
2018-07-12T00:16:39.120Z,13.20
2018-07-12T00:19:05.705Z,13.20
2018-07-12T00:21:32.279Z,13.20
2018-07-12T00:23:58.862Z,13.20
2018-07-12T00:26:25.558Z,13.20
2018-07-12T00:28:52.100Z,13.20
2018-07-12T00:31:18.673Z,13.30
2018-07-12T00:33:45.357Z,13.30
2018-07-12T00:36:11.864Z,13.30
2018-07-12T00:38:38.404Z,13.30
2018-07-12T00:41:04.998Z,13.30
2018-07-12T00:43:31.577Z,13.30
2018-07-12T00:45:58.120Z,13.30
2018-07-12T00:48:24.664Z,13.20
2018-07-12T00:50:51.252Z,13.30
2018-07-12T00:53:17.821Z,13.30
2018-07-12T00:55:44.381Z,13.30
2018-07-12T00:58:10.957Z,13.30
2018-07-12T01:00:37.513Z,13.30
2018-07-12T01:03:04.057Z,13.40
2018-07-12T01:08:08.262Z,13.40
2018-07-12T01:10:34.816Z,13.40
2018-07-12T01:13:01.390Z,13.40
2018-07-12T01:15:27.962Z,13.50
2018-07-12T01:20:21.576Z,13.50
2018-07-12T01:22:48.200Z,13.50
2018-07-12T01:25:14.758Z,13.50
2018-07-12T01:27:41.340Z,13.50
2018-07-12T01:30:07.902Z,13.50
2018-07-12T01:32:38.140Z,13.60
2018-07-12T01:35:04.706Z,13.50
2018-07-12T01:37:31.268Z,13.60
2018-07-12T01:39:57.838Z,13.60
2018-07-12T01:42:24.431Z,13.60
2018-07-12T01:44:51.012Z,13.60
2018-07-12T01:47:17.589Z,13.50
2018-07-12T01:49:44.157Z,13.50
2018-07-12T01:52:10.743Z,13.50
2018-07-12T01:54:37.324Z,13.50
2018-07-12T01:57:03.866Z,13.50
2018-07-12T01:59:30.414Z,13.50
2018-07-12T02:01:56.985Z,13.50
2018-07-12T02:04:23.571Z,13.40
2018-07-12T02:06:50.144Z,13.40
2018-07-12T02:09:16.688Z,13.40
2018-07-12T02:11:43.244Z,13.40
2018-07-12T02:14:09.805Z,13.30
2018-07-12T02:16:36.344Z,13.30
2018-07-12T02:19:02.904Z,13.30
2018-07-12T02:21:29.465Z,13.30
2018-07-12T02:23:56.035Z,13.30
2018-07-12T02:26:22.613Z,13.30
2018-07-12T02:28:49.224Z,13.30
2018-07-12T02:31:15.776Z,13.30
2018-07-12T02:33:45.926Z,13.20
2018-07-12T02:36:12.529Z,13.20
2018-07-12T02:38:39.084Z,13.30
2018-07-12T02:41:05.675Z,13.20
2018-07-12T02:45:59.230Z,13.20
2018-07-12T02:48:25.985Z,13.20
2018-07-12T02:50:52.518Z,13.20
2018-07-12T02:55:46.196Z,13.30
2018-07-12T02:58:12.803Z,13.30
2018-07-12T03:00:39.341Z,13.30
2018-07-12T03:03:05.950Z,13.30
2018-07-12T03:05:32.489Z,13.30
2018-07-12T03:07:59.098Z,13.30
2018-07-12T03:10:25.741Z,13.30
2018-07-12T03:12:52.345Z,13.30
2018-07-12T03:15:18.921Z,13.30
2018-07-12T03:17:45.648Z,13.30
2018-07-12T03:22:39.269Z,13.30
2018-07-12T03:25:05.960Z,13.40
2018-07-12T03:27:32.637Z,13.40
2018-07-12T03:29:59.198Z,13.30
2018-07-12T03:32:25.812Z,13.40
2018-07-12T03:34:52.377Z,13.40
2018-07-12T03:37:18.950Z,13.40
2018-07-12T03:39:45.540Z,13.40
2018-07-12T03:42:12.098Z,13.40
2018-07-12T03:44:38.623Z,13.50
2018-07-12T03:47:05.275Z,13.50
2018-07-12T03:49:31.900Z,13.40
2018-07-12T03:51:58.457Z,13.50
2018-07-12T03:54:25.039Z,13.50
2018-07-12T03:56:51.617Z,13.50
2018-07-12T03:59:18.206Z,13.50
2018-07-12T04:01:44.800Z,13.50
2018-07-12T04:04:11.417Z,13.50
2018-07-12T04:06:38.236Z,13.50
2018-07-12T04:09:05.229Z,13.50
2018-07-12T04:11:31.949Z,13.60
2018-07-12T04:13:58.540Z,13.60
2018-07-12T04:16:25.116Z,13.60
2018-07-12T04:18:51.701Z,13.60
2018-07-12T04:21:18.430Z,13.70
2018-07-12T04:23:45.166Z,13.70
2018-07-12T04:26:11.737Z,13.70
2018-07-12T04:28:38.329Z,13.70
2018-07-12T04:31:06.049Z,13.70
2018-07-12T04:33:32.640Z,13.70
2018-07-12T04:35:59.257Z,13.70
2018-07-12T04:38:25.836Z,13.70
2018-07-12T04:43:19.535Z,13.80
2018-07-12T04:45:46.089Z,13.80
2018-07-12T04:48:12.772Z,13.80
2018-07-12T04:50:39.478Z,13.90
2018-07-12T04:53:06.033Z,14.00
2018-07-12T04:55:32.597Z,14.00
2018-07-12T04:57:59.158Z,14.00
2018-07-12T05:00:25.732Z,14.10
2018-07-12T05:02:52.336Z,14.10
2018-07-12T05:05:18.921Z,14.10
2018-07-12T05:07:45.563Z,14.10
2018-07-12T05:10:12.151Z,14.10
2018-07-12T05:12:38.708Z,14.10
2018-07-12T05:15:05.366Z,14.20
2018-07-12T05:17:31.936Z,14.20
2018-07-12T05:19:58.509Z,14.30
2018-07-12T05:22:25.081Z,14.30
2018-07-12T05:24:51.646Z,14.30
2018-07-12T05:27:18.210Z,14.30
2018-07-12T05:29:44.805Z,14.30
2018-07-12T05:32:11.494Z,14.20
2018-07-12T05:34:38.075Z,14.10
2018-07-12T05:37:06.205Z,14.10
2018-07-12T05:39:33.817Z,14.00
2018-07-12T05:42:01.430Z,13.90
2018-07-12T05:44:29.361Z,13.90
2018-07-12T05:46:57.072Z,13.80
2018-07-12T05:49:25.030Z,13.80
2018-07-12T05:51:52.709Z,13.80
2018-07-12T05:54:20.637Z,13.80
2018-07-12T05:56:48.376Z,13.80
2018-07-12T05:59:16.463Z,13.80
2018-07-12T06:01:55.808Z,13.80
2018-07-12T06:04:23.493Z,13.80
2018-07-12T06:06:51.058Z,13.80
2018-07-12T06:09:18.634Z,13.90
2018-07-12T06:11:46.253Z,13.90
2018-07-12T06:14:13.980Z,14.00
2018-07-12T06:16:41.589Z,14.10
2018-07-12T06:19:09.240Z,14.20
2018-07-12T06:21:36.833Z,14.30
2018-07-12T06:24:04.650Z,14.40
2018-07-12T06:26:32.269Z,14.50
2018-07-12T06:28:59.887Z,14.60
2018-07-12T06:31:27.772Z,14.70
2018-07-12T06:33:55.527Z,14.90
2018-07-12T06:36:23.144Z,15.10
2018-07-12T06:38:50.749Z,15.40
2018-07-12T06:41:18.354Z,15.70
2018-07-12T06:46:13.689Z,16.10
2018-07-12T06:48:41.373Z,16.30
2018-07-12T06:51:08.972Z,16.50
2018-07-12T06:53:36.553Z,16.60
2018-07-12T06:56:04.149Z,16.70
2018-07-12T06:58:31.752Z,16.90
2018-07-12T07:00:59.366Z,16.90
2018-07-12T07:03:27.063Z,16.90
2018-07-12T07:05:54.621Z,16.80
2018-07-12T07:08:22.267Z,16.80
2018-07-12T07:10:49.882Z,16.90
2018-07-12T07:13:17.561Z,16.90
2018-07-12T07:15:45.192Z,16.80
2018-07-12T07:18:12.770Z,16.80
2018-07-12T07:20:40.456Z,16.70
2018-07-12T07:23:08.076Z,16.70
2018-07-12T07:25:35.696Z,16.70
2018-07-12T07:28:03.314Z,16.70
2018-07-12T07:30:30.887Z,16.70
2018-07-12T07:32:58.497Z,16.70
2018-07-12T07:35:26.145Z,16.80
2018-07-12T07:37:53.738Z,17.00
2018-07-12T07:40:21.345Z,17.30
2018-07-12T07:42:49.017Z,17.50
2018-07-12T07:45:16.657Z,17.70
2018-07-12T07:47:44.298Z,17.90
2018-07-12T07:50:11.877Z,18.10
2018-07-12T07:52:39.521Z,18.40
2018-07-12T07:55:07.121Z,18.50
2018-07-12T07:57:34.740Z,18.50
2018-07-12T08:00:02.384Z,18.50
2018-07-12T08:04:57.512Z,18.40
2018-07-12T08:07:25.120Z,18.40
2018-07-12T08:09:52.741Z,18.40
2018-07-12T08:12:20.368Z,18.40
2018-07-12T08:14:48.201Z,18.50
2018-07-12T08:17:16.425Z,18.70
2018-07-12T08:19:44.418Z,18.90
2018-07-12T08:22:12.806Z,19.00
2018-07-12T08:24:40.964Z,19.10
2018-07-12T08:27:08.720Z,19.60
2018-07-12T08:29:36.309Z,20.40
2018-07-12T08:32:04.496Z,21.20
2018-07-12T08:34:32.349Z,22.00
2018-07-12T08:36:59.978Z,22.70
2018-07-12T08:39:27.694Z,23.10
2018-07-12T08:41:55.506Z,23.60
2018-07-12T08:46:50.679Z,23.40
2018-07-12T08:49:18.237Z,23.50
2018-07-12T08:51:46.225Z,23.80
2018-07-12T08:54:14.035Z,23.70
2018-07-12T08:56:42.100Z,23.70
2018-07-12T08:59:09.705Z,23.60
2018-07-12T09:01:37.495Z,23.30
2018-07-12T09:04:05.185Z,23.10
2018-07-12T09:06:32.809Z,22.70
2018-07-12T09:09:00.402Z,22.40
2018-07-12T09:11:28.057Z,22.20
2018-07-12T09:13:55.669Z,22.20
2018-07-12T09:16:23.304Z,22.20
2018-07-12T09:21:18.441Z,22.80
2018-07-12T09:23:46.057Z,23.10
2018-07-12T09:26:13.694Z,23.30
2018-07-12T09:28:41.281Z,23.10
2018-07-12T09:31:08.987Z,22.60
2018-07-12T09:33:36.707Z,22.50
2018-07-12T09:36:04.320Z,22.80
2018-07-12T09:38:50.953Z,23.50
2018-07-12T09:41:19.520Z,24.00
2018-07-12T09:43:47.716Z,24.60
2018-07-12T09:46:16.610Z,24.60
2018-07-12T09:48:45.493Z,25.00
2018-07-12T09:51:13.757Z,25.20
2018-07-12T09:53:42.540Z,25.80
2018-07-12T09:56:10.290Z,26.40
2018-07-12T09:58:37.779Z,26.40
2018-07-12T10:01:11.153Z,26.20
2018-07-12T10:03:46.271Z,26.00
2018-07-12T10:06:19.756Z,26.30
2018-07-12T10:08:52.740Z,27.10
2018-07-12T10:11:26.613Z,27.60
2018-07-12T10:13:59.828Z,27.50
2018-07-12T10:16:33.219Z,27.10
2018-07-12T10:19:00.822Z,26.60
2018-07-12T10:21:28.462Z,25.80
2018-07-12T10:23:56.072Z,25.20
2018-07-12T10:26:23.656Z,24.50
2018-07-12T10:28:51.315Z,24.10
2018-07-12T10:31:19.160Z,24.40
2018-07-12T10:33:46.793Z,25.00
2018-07-12T10:36:14.409Z,25.80
2018-07-12T10:38:42.011Z,26.80
2018-07-12T10:41:09.653Z,27.30
2018-07-12T10:43:37.247Z,28.00
2018-07-12T10:46:04.881Z,28.10
2018-07-12T10:48:32.510Z,27.80
2018-07-12T10:51:00.086Z,27.50
2018-07-12T10:53:27.734Z,27.10
2018-07-12T10:55:55.324Z,27.40
2018-07-12T10:58:22.924Z,28.00
2018-07-12T11:00:50.513Z,28.60
2018-07-12T11:03:18.144Z,28.50
2018-07-12T11:05:45.816Z,28.00
2018-07-12T11:08:13.458Z,28.30
2018-07-12T11:10:41.109Z,28.30
2018-07-12T11:13:16.732Z,28.10
2018-07-12T11:15:45.231Z,27.80
2018-07-12T11:18:12.872Z,27.70
2018-07-12T11:20:40.625Z,28.20
2018-07-12T11:23:08.253Z,28.80
2018-07-12T11:25:35.870Z,29.40
2018-07-12T11:28:03.867Z,30.00
2018-07-12T11:30:31.741Z,30.30
2018-07-12T11:32:59.349Z,30.30
2018-07-12T11:35:26.933Z,30.60
2018-07-12T11:37:54.500Z,31.00
2018-07-12T11:40:22.111Z,31.00
2018-07-12T11:42:49.694Z,30.50
2018-07-12T11:45:17.365Z,29.70
2018-07-12T11:47:45.269Z,29.10
2018-07-12T11:50:13.020Z,28.80
2018-07-12T11:52:40.665Z,28.70
2018-07-12T11:55:08.253Z,28.50
2018-07-12T11:57:35.948Z,28.00
2018-07-12T12:00:03.933Z,27.50
2018-07-12T12:02:31.521Z,27.90
2018-07-12T12:04:59.136Z,28.10
2018-07-12T12:07:31.100Z,28.10
2018-07-12T12:09:58.798Z,27.80
2018-07-12T12:12:26.530Z,27.30
2018-07-12T12:19:53.216Z,27.00
2018-07-12T12:24:48.357Z,28.10
2018-07-12T12:27:15.954Z,28.80
2018-07-12T12:29:43.589Z,29.60
2018-07-12T12:32:11.177Z,30.20
2018-07-12T12:34:39.849Z,30.70
2018-07-12T12:37:07.444Z,30.90
2018-07-12T12:39:35.021Z,31.20
2018-07-12T12:42:02.657Z,30.90
2018-07-12T12:44:30.261Z,30.40
2018-07-12T12:46:57.827Z,29.90
2018-07-12T12:49:25.421Z,29.50
2018-07-12T12:51:53.468Z,29.00
2018-07-12T12:54:21.060Z,29.10
2018-07-12T12:56:48.693Z,29.80
2018-07-12T12:59:16.297Z,29.70
2018-07-12T13:01:43.864Z,29.40
2018-07-12T13:04:11.468Z,28.80
2018-07-12T13:06:39.050Z,28.40
2018-07-12T13:09:06.713Z,27.90
2018-07-12T13:11:34.369Z,27.60
2018-07-12T13:14:01.979Z,27.90
2018-07-12T13:16:29.725Z,28.50
2018-07-12T13:18:57.645Z,28.90
2018-07-12T13:21:25.322Z,28.70
2018-07-12T13:23:52.903Z,28.40
2018-07-12T13:26:20.681Z,28.00
2018-07-12T13:28:48.368Z,27.40
2018-07-12T13:31:15.990Z,26.90
2018-07-12T13:33:43.585Z,26.50
2018-07-12T13:36:11.163Z,26.30
2018-07-12T13:38:38.840Z,26.10
2018-07-12T13:41:06.735Z,26.00
2018-07-12T13:43:34.374Z,25.90
2018-07-12T13:46:02.132Z,25.80
2018-07-12T13:48:29.721Z,25.60
2018-07-12T13:50:57.416Z,25.60
2018-07-12T13:53:25.216Z,25.90
2018-07-12T13:55:52.813Z,26.30
2018-07-12T13:58:20.412Z,26.50
2018-07-12T14:00:47.969Z,26.70
2018-07-12T14:03:15.632Z,26.70
2018-07-12T14:05:43.241Z,26.70
2018-07-12T14:08:10.841Z,26.70
2018-07-12T14:10:38.504Z,26.90
2018-07-12T14:13:06.172Z,26.90
2018-07-12T14:15:33.853Z,27.10
2018-07-12T14:18:01.555Z,27.50
2018-07-12T14:20:29.477Z,27.50
2018-07-12T14:22:58.225Z,27.20
2018-07-12T14:25:25.889Z,27.00
2018-07-12T14:27:53.537Z,27.40
2018-07-12T14:32:48.759Z,28.50
2018-07-12T14:35:16.368Z,28.80
2018-07-12T14:37:44.049Z,29.10
2018-07-12T14:40:11.774Z,29.10
2018-07-12T14:42:39.348Z,28.90
2018-07-12T14:45:07.331Z,28.90
2018-07-12T14:47:34.944Z,29.10
2018-07-12T14:50:02.793Z,29.10
2018-07-12T14:52:34.380Z,29.20
2018-07-12T14:55:02.130Z,29.30
2018-07-12T14:57:29.946Z,29.00
2018-07-12T14:59:57.852Z,29.00
2018-07-12T15:02:25.562Z,29.10
2018-07-12T15:04:54.400Z,28.90
2018-07-12T15:09:50.193Z,29.00
2018-07-12T15:12:18.013Z,29.00
2018-07-12T15:14:45.652Z,28.90
2018-07-12T15:17:13.261Z,28.60
2018-07-12T15:19:41.138Z,28.30
2018-07-12T15:22:12.432Z,27.70
2018-07-12T15:24:47.049Z,27.30
2018-07-12T15:27:15.828Z,26.90
2018-07-12T15:29:47.370Z,26.50
2018-07-12T15:32:20.929Z,26.30
2018-07-12T15:34:48.529Z,26.00
2018-07-12T15:37:17.507Z,25.80
2018-07-12T15:39:50.761Z,25.80
2018-07-12T15:42:21.643Z,25.70
2018-07-12T15:44:49.530Z,25.60
2018-07-12T15:47:24.845Z,25.60
2018-07-12T15:49:58.527Z,25.60
2018-07-12T15:52:26.513Z,25.60
2018-07-12T15:54:54.236Z,25.50
2018-07-12T15:57:21.897Z,25.40
2018-07-12T15:59:51.705Z,25.20
2018-07-12T16:02:19.726Z,25.10
2018-07-12T16:04:47.420Z,25.10
2018-07-12T16:07:15.137Z,25.00
2018-07-12T16:09:42.748Z,25.00
2018-07-12T16:12:10.385Z,25.00
2018-07-12T16:14:38.859Z,25.10
2018-07-12T16:17:10.452Z,25.20
2018-07-12T16:19:38.159Z,25.50
2018-07-12T16:22:06.089Z,25.50
2018-07-12T16:24:33.910Z,25.40
2018-07-12T16:27:01.548Z,25.20
2018-07-12T16:29:29.168Z,25.00
2018-07-12T16:31:57.133Z,24.80
2018-07-12T16:34:24.781Z,24.70
2018-07-12T16:36:52.428Z,24.70
2018-07-12T16:41:47.671Z,24.60
2018-07-12T16:44:15.412Z,24.60
2018-07-12T16:46:43.245Z,24.50
2018-07-12T16:49:10.918Z,24.40
2018-07-12T16:51:38.624Z,24.40
2018-07-12T16:54:06.394Z,24.30
2018-07-12T16:56:34.135Z,24.30
2018-07-12T16:59:02.063Z,24.40
2018-07-12T17:01:29.957Z,24.40
2018-07-12T17:03:57.543Z,24.50
2018-07-12T17:06:25.257Z,24.50
2018-07-12T17:08:53.074Z,24.50
2018-07-12T17:11:20.661Z,24.50
2018-07-12T17:13:48.766Z,24.30
2018-07-12T17:16:16.486Z,24.30
2018-07-12T17:18:44.128Z,24.30
2018-07-12T17:21:11.828Z,24.30
2018-07-12T17:23:39.521Z,24.30
2018-07-12T17:26:07.364Z,24.40
2018-07-12T17:28:35.370Z,24.30
2018-07-12T17:31:03.161Z,24.30
2018-07-12T17:33:30.807Z,24.30
2018-07-12T17:36:02.343Z,24.30
2018-07-12T17:38:30.357Z,24.30
2018-07-12T17:40:58.290Z,24.40
2018-07-12T17:43:26.210Z,24.40
2018-07-12T17:45:53.810Z,24.30
2018-07-12T17:48:22.540Z,24.30
2018-07-12T17:50:50.452Z,24.20
2018-07-12T17:53:18.167Z,24.20
2018-07-12T17:55:45.781Z,24.20
2018-07-12T17:58:13.480Z,24.10
2018-07-12T18:00:41.192Z,24.00
2018-07-12T18:03:08.986Z,23.90
2018-07-12T18:05:36.857Z,23.80
2018-07-12T18:08:05.045Z,23.70
2018-07-12T18:10:32.892Z,23.60
2018-07-12T18:13:00.693Z,23.40
2018-07-12T18:15:28.502Z,23.30
2018-07-12T18:17:56.281Z,23.10
2018-07-12T18:20:23.921Z,23.00
2018-07-12T18:22:52.028Z,22.80
2018-07-12T18:25:19.978Z,22.70
2018-07-12T18:27:47.937Z,22.60
2018-07-12T18:30:15.565Z,22.50
2018-07-12T18:32:43.353Z,22.40
2018-07-12T18:35:11.074Z,22.30
2018-07-12T18:37:39.901Z,22.20
2018-07-12T18:40:07.653Z,22.10
2018-07-12T18:42:35.288Z,22.00
2018-07-12T18:45:03.157Z,21.80
2018-07-12T18:47:31.598Z,21.80
2018-07-12T18:49:59.340Z,21.70
2018-07-12T18:52:28.089Z,21.60
2018-07-12T18:54:55.842Z,21.50
2018-07-12T18:57:23.531Z,21.40
2018-07-12T18:59:51.208Z,21.30
2018-07-12T19:02:18.833Z,21.10
2018-07-12T19:04:46.761Z,21.00
2018-07-12T19:07:14.364Z,20.90
2018-07-12T19:09:42.316Z,20.70
2018-07-12T19:12:10.219Z,20.50
2018-07-12T19:14:37.996Z,20.30
2018-07-12T19:17:06.353Z,20.20
2018-07-12T19:19:34.096Z,20.10
2018-07-12T19:22:01.740Z,19.90
2018-07-12T19:24:29.476Z,19.80
2018-07-12T19:26:57.177Z,19.70
2018-07-12T19:29:24.910Z,19.50
2018-07-12T19:31:52.565Z,19.40
2018-07-12T19:34:20.196Z,19.30
2018-07-12T19:36:47.898Z,19.10
2018-07-12T19:39:15.521Z,19.00
2018-07-12T19:41:43.173Z,18.90
2018-07-12T19:44:10.805Z,18.70
2018-07-12T19:46:38.504Z,18.60
2018-07-12T19:49:08.117Z,18.40
2018-07-12T19:51:35.784Z,18.30
2018-07-12T19:54:03.485Z,18.10
2018-07-12T19:56:34.469Z,18.00
2018-07-12T19:59:02.245Z,17.90
2018-07-12T20:01:29.865Z,17.70
2018-07-12T20:03:57.559Z,17.60
2018-07-12T20:06:25.339Z,17.50
2018-07-12T20:08:52.970Z,17.40
2018-07-12T20:11:20.578Z,17.30
2018-07-12T20:13:48.189Z,17.20
2018-07-12T20:16:15.845Z,17.10
2018-07-12T20:18:43.497Z,17.00
2018-07-12T20:21:11.242Z,17.00
2018-07-12T20:23:39.045Z,16.90
2018-07-12T20:26:06.956Z,16.80
2018-07-12T20:28:34.575Z,16.80
2018-07-12T20:31:02.185Z,16.70
2018-07-12T20:33:29.858Z,16.60
2018-07-12T20:35:57.481Z,16.60
2018-07-12T20:38:25.179Z,16.60
2018-07-12T20:40:52.850Z,16.50
2018-07-12T20:43:21.108Z,16.40
2018-07-12T20:45:49.262Z,16.40
2018-07-12T20:48:17.391Z,16.30
2018-07-12T20:50:45.243Z,16.30
2018-07-12T20:53:12.975Z,16.20
2018-07-12T20:55:40.585Z,16.10
2018-07-12T20:58:08.454Z,16.00
2018-07-12T21:00:36.094Z,15.90
2018-07-12T21:03:03.719Z,15.90
2018-07-12T21:05:31.362Z,15.80
2018-07-12T21:07:58.953Z,15.70
2018-07-12T21:10:26.634Z,15.60
2018-07-12T21:15:21.949Z,15.50
2018-07-12T21:17:49.569Z,15.50
2018-07-12T21:20:17.197Z,15.40
2018-07-12T21:25:12.380Z,15.30
2018-07-12T21:27:39.976Z,15.30
2018-07-12T21:30:09.449Z,15.20
2018-07-12T21:32:37.319Z,15.10
2018-07-12T21:35:05.606Z,15.00
2018-07-12T21:37:33.272Z,15.00
2018-07-12T21:40:01.071Z,14.80
2018-07-12T21:42:28.741Z,14.80
2018-07-12T21:44:56.349Z,14.70
2018-07-12T21:47:23.973Z,14.60
2018-07-12T21:52:19.320Z,14.50
2018-07-12T21:54:47.434Z,14.40
2018-07-12T21:57:15.054Z,14.30
2018-07-12T21:59:42.704Z,14.30
2018-07-12T22:02:10.319Z,14.20
2018-07-12T22:04:37.916Z,14.20
2018-07-12T22:09:39.083Z,14.10
2018-07-12T22:12:06.793Z,14.00
2018-07-12T22:14:34.385Z,13.90
2018-07-12T22:17:05.791Z,13.90
2018-07-12T22:19:33.389Z,13.80
2018-07-12T22:22:01.007Z,13.70
2018-07-12T22:24:28.608Z,13.70
2018-07-12T22:26:56.486Z,13.60
2018-07-12T22:29:24.104Z,13.50
2018-07-12T22:31:51.770Z,13.50
2018-07-12T22:34:20.392Z,13.40
2018-07-12T22:36:48.014Z,13.40
2018-07-12T22:39:15.645Z,13.40
2018-07-12T22:41:43.328Z,13.30
2018-07-12T22:44:10.956Z,13.30
2018-07-12T22:46:38.538Z,13.20
2018-07-12T22:49:06.251Z,13.10
2018-07-12T22:51:33.809Z,13.20
2018-07-12T22:54:01.411Z,13.10
2018-07-12T22:56:29.081Z,13.10
2018-07-12T22:58:56.708Z,13.00
2018-07-12T23:01:24.493Z,13.00
2018-07-12T23:03:52.128Z,13.00
2018-07-12T23:06:19.759Z,12.90
2018-07-12T23:08:47.370Z,12.80
2018-07-12T23:11:15.023Z,12.80
2018-07-12T23:13:42.862Z,12.80
2018-07-12T23:16:10.432Z,12.80
2018-07-12T23:18:38.959Z,12.70
2018-07-12T23:21:06.692Z,12.70
2018-07-12T23:23:34.390Z,12.70
2018-07-12T23:26:01.995Z,12.60
2018-07-12T23:28:29.628Z,12.60
2018-07-12T23:30:57.229Z,12.60
2018-07-12T23:33:24.848Z,12.50
2018-07-12T23:38:20.021Z,12.40
2018-07-12T23:40:47.597Z,12.40
2018-07-12T23:43:15.257Z,12.40
2018-07-12T23:45:43.041Z,12.30
2018-07-12T23:48:10.670Z,12.30
2018-07-12T23:50:40.342Z,12.20
2018-07-12T23:53:07.948Z,12.20
2018-07-12T23:55:35.582Z,12.20
2018-07-12T23:58:03.182Z,12.10
